createdAt,value
2022-10-23T00:00:00.187Z,10.2
2022-10-23T00:05:00.189Z,10.2
2022-10-23T00:10:00.212Z,10.3
2022-10-23T00:15:00.188Z,10.2
2022-10-23T00:20:00.208Z,10.2
2022-10-23T00:25:00.189Z,10.0
2022-10-23T00:30:00.256Z,9.9
2022-10-23T07:30:00.285Z,11.0
2022-10-23T07:35:00.433Z,11.1
2022-10-23T07:45:00.267Z,11.6
2022-10-23T07:50:00.255Z,11.7
2022-10-23T07:55:00.277Z,11.8
2022-10-23T08:00:00.273Z,12.0
2022-10-23T08:15:00.208Z,12.1
2022-10-23T08:35:00.189Z,12.0
2022-10-23T08:40:00.224Z,12.1
2022-10-23T08:45:00.191Z,12.1
2022-10-23T08:50:00.190Z,12.3
2022-10-23T08:55:00.205Z,12.2
2022-10-23T09:00:00.340Z,12.3
2022-10-23T09:05:00.219Z,12.3
2022-10-23T09:10:00.194Z,12.3
2022-10-23T09:15:00.182Z,12.5
2022-10-23T09:20:00.195Z,12.4
2022-10-23T09:30:00.227Z,12.4
2022-10-23T09:40:00.305Z,12.8
2022-10-23T09:50:00.171Z,12.6
2022-10-23T09:55:00.212Z,12.6
2022-10-23T10:00:00.277Z,12.6
2022-10-23T10:05:00.222Z,12.8
2022-10-23T10:10:00.185Z,12.6
2022-10-23T10:15:00.193Z,12.8
2022-10-23T10:20:03.844Z,12.7
2022-10-23T10:25:00.215Z,12.7
2022-10-23T10:30:00.243Z,12.8
2022-10-23T10:35:00.203Z,12.7
2022-10-23T10:40:00.195Z,12.8
2022-10-23T10:45:00.184Z,12.9
2022-10-23T10:50:00.190Z,12.9
2022-10-23T10:55:00.215Z,13.0
2022-10-23T11:00:00.186Z,12.9
2022-10-23T11:05:00.195Z,12.9
2022-10-23T11:10:00.198Z,12.9
2022-10-23T11:15:00.195Z,13.1
2022-10-23T11:20:00.224Z,12.9
2022-10-23T11:30:00.234Z,13.0
2022-10-23T11:35:00.216Z,13.3
2022-10-23T11:45:00.215Z,13.0
2022-10-23T11:50:00.245Z,13.2
2022-10-23T12:10:00.221Z,13.3
2022-10-23T12:15:00.263Z,13.3
2022-10-23T12:20:00.201Z,13.3
2022-10-23T12:25:00.208Z,13.4
2022-10-23T12:30:00.287Z,13.4
2022-10-23T12:35:00.216Z,13.6
2022-10-23T12:40:00.204Z,13.5
2022-10-23T12:45:00.231Z,13.5
2022-10-23T12:50:00.249Z,13.6
2022-10-23T12:55:00.196Z,13.7
2022-10-23T13:00:00.287Z,13.7
2022-10-23T13:05:00.216Z,13.7
2022-10-23T13:10:00.217Z,13.8
2022-10-23T13:15:00.217Z,13.7
2022-10-23T13:20:00.221Z,13.8
2022-10-23T13:30:00.247Z,13.8
2022-10-23T13:35:10.139Z,14.0
2022-10-23T13:40:00.222Z,14.0
2022-10-23T13:45:00.219Z,14.0
2022-10-23T13:50:00.212Z,14.0
2022-10-23T13:55:00.211Z,13.9
2022-10-23T14:00:00.377Z,14.0
2022-10-23T14:05:00.194Z,13.9
2022-10-23T14:10:00.204Z,13.9
2022-10-23T14:15:00.227Z,13.9
2022-10-23T14:20:00.207Z,13.9
2022-10-23T14:25:00.213Z,14.1
2022-10-23T14:30:00.235Z,14.1
2022-10-23T14:35:00.225Z,13.9
2022-10-23T14:40:00.232Z,13.9
2022-10-23T14:45:00.203Z,14.0
2022-10-23T14:50:00.216Z,14.2
2022-10-23T14:55:00.283Z,14.1
2022-10-23T15:00:00.289Z,14.1
2022-10-23T15:05:00.212Z,14.0
2022-10-23T15:10:00.207Z,13.9
2022-10-23T15:15:00.218Z,14.0
2022-10-23T15:20:00.199Z,14.0
2022-10-23T15:25:01.356Z,14.0
2022-10-23T15:30:00.196Z,13.9
2022-10-23T15:35:00.221Z,13.9
2022-10-23T15:40:02.325Z,13.8
2022-10-23T15:45:00.223Z,13.8
2022-10-23T15:50:00.211Z,13.7
2022-10-23T15:55:00.203Z,13.7
2022-10-23T16:00:00.280Z,13.6
2022-10-23T16:05:00.212Z,13.7
2022-10-23T16:10:00.276Z,13.6
2022-10-23T16:15:00.185Z,13.6
2022-10-23T16:20:00.302Z,13.6
2022-10-23T16:25:00.186Z,13.5
2022-10-23T16:30:00.243Z,13.5
2022-10-23T16:35:00.186Z,13.5
2022-10-23T16:40:00.212Z,13.5
2022-10-23T16:45:00.202Z,13.5
2022-10-23T16:50:00.199Z,13.4
2022-10-23T16:55:00.219Z,13.4
2022-10-23T17:00:00.227Z,13.5
2022-10-23T17:05:00.177Z,13.4
2022-10-23T17:10:00.224Z,13.5
2022-10-23T17:15:00.198Z,13.3
2022-10-23T17:20:00.189Z,13.3
2022-10-23T17:25:00.211Z,13.2
2022-10-23T17:30:00.204Z,13.4
2022-10-23T17:35:00.240Z,13.3
2022-10-23T17:40:01.284Z,13.3
2022-10-23T17:45:00.196Z,13.4
2022-10-23T17:50:00.226Z,13.3
2022-10-23T17:55:00.210Z,13.5
2022-10-23T18:00:00.205Z,13.4
2022-10-23T18:05:00.179Z,13.5
2022-10-23T18:10:00.192Z,13.5
2022-10-23T18:15:00.205Z,13.6
2022-10-23T18:20:02.213Z,13.5
2022-10-23T18:25:00.180Z,13.7
2022-10-23T18:30:10.950Z,13.5
2022-10-23T18:35:00.233Z,13.7
2022-10-23T18:40:00.191Z,13.8
2022-10-23T18:45:00.223Z,13.8
2022-10-23T18:50:00.192Z,13.9
2022-10-23T18:55:00.199Z,13.7
2022-10-23T19:00:00.252Z,13.9
2022-10-23T19:05:00.188Z,13.7
2022-10-23T19:10:00.206Z,13.8
2022-10-23T19:15:00.194Z,13.9
2022-10-23T19:20:00.196Z,13.9
2022-10-23T19:25:00.194Z,13.9
2022-10-23T19:30:00.202Z,13.9
2022-10-23T19:35:00.190Z,13.7
2022-10-23T19:40:00.208Z,13.8
2022-10-23T19:45:00.198Z,13.9
2022-10-23T19:50:00.264Z,14.1
2022-10-23T19:55:00.199Z,14.3
2022-10-23T20:00:00.221Z,14.3
2022-10-23T20:05:00.201Z,14.2
2022-10-23T20:10:00.193Z,14.2
2022-10-23T20:15:00.194Z,14.3
2022-10-23T20:20:00.209Z,14.1
2022-10-23T20:25:00.219Z,14.2
2022-10-23T20:30:00.204Z,14.2
2022-10-23T20:35:00.191Z,14.0
2022-10-23T20:40:00.185Z,13.9
2022-10-23T20:45:00.184Z,13.7
2022-10-23T20:50:00.201Z,13.9
2022-10-23T20:55:00.198Z,13.6
2022-10-23T21:00:00.198Z,13.6
2022-10-23T21:05:00.189Z,13.4
2022-10-23T21:10:00.215Z,13.4
2022-10-23T21:15:00.240Z,13.2
2022-10-23T21:20:00.209Z,13.0
2022-10-23T21:25:00.187Z,12.9
2022-10-23T21:30:00.210Z,13.0
2022-10-23T21:35:00.183Z,12.7
2022-10-23T21:40:00.215Z,12.8
2022-10-23T21:45:00.217Z,12.8
2022-10-23T21:50:00.220Z,12.7
2022-10-23T21:55:00.208Z,12.8
2022-10-23T22:00:00.232Z,12.9
2022-10-23T22:05:00.205Z,12.7
2022-10-23T22:10:00.182Z,12.7
2022-10-23T22:15:00.226Z,12.7
2022-10-23T22:20:00.196Z,12.7
2022-10-23T22:25:00.193Z,12.7
2022-10-23T22:30:00.197Z,12.8
2022-10-23T22:35:00.207Z,12.9
2022-10-23T22:40:00.234Z,13.1
2022-10-23T22:45:00.192Z,13.2
2022-10-23T22:50:00.225Z,13.5
2022-10-23T22:55:00.192Z,13.5
2022-10-23T23:00:00.224Z,13.7
2022-10-23T23:05:00.208Z,13.4
2022-10-23T23:10:00.200Z,13.4
2022-10-23T23:15:00.232Z,13.2
2022-10-23T23:20:00.199Z,13.1
2022-10-23T23:25:00.197Z,13.1
2022-10-23T23:30:00.209Z,13.1
2022-10-23T23:35:00.222Z,13.1
2022-10-23T23:40:00.207Z,13.1
2022-10-23T23:45:13.406Z,13.3
2022-10-23T23:50:00.214Z,13.3
2022-10-23T23:55:00.201Z,13.2
